Aviation Digital Data Service (ADDS)

Output produced by METARs form (1240 UTC 22 February 2018)
found at http://www.aviationweather.gov/adds/metars/
 
ELLX 221220Z 06017KT 9999 FEW040 02/M08 Q1017 TEMPO 07020G30KT
TAF ELLX 221100Z 2212/2318 06015KT CAVOK 
     TEMPO 2212/2217 07020G30KT